PWSweather.com
Personal Weather Stations
Station Observations
SHAHALMS1
Eftra, Falkenberg, HA

EftraFalkenberg, HA

Lat: 56.85, Lon: 12.65

Elevation: 140

Station Type:

http://hem.passagen.se/risarp101

High Low Average
Temperature 56.3°F13.5°C 40.8°F4.9°C 50.6°F10.3°C
Dew Point 41.7°F5.4°C 28.8°F-1.8°C 35.2°F1.8°C
Winds 13.8 mph 22.2 kmh Calm Calm 5.0 mph W8.0 kmh W
Wind Gusts 40.8 mph65.7 kmh -- 13.0 mph20.9 kmh
Humidity 66% 46% 56%
Pressure 30.18 in1022.0 mb 29.77 in1008.1 mb -
Precipitation 0.00 in0.0 mm - -
Hour Temp Dew Point Humidity Winds Wind Gusts Pressure Precip Precip Rate Daily Precip Total
12:00 AM 52.7°F11.5°C 41.7°F5.4°C 66% 13.8 mph WNW22.2 kmh WNW 30.4 mph48.9 kmh 29.77 in1008.1 mb 0.00 in0.0 mm 0.00 in0.0 mm 0.00 in0.0 mm
12:15 AM 52.7°F11.5°C 41.7°F5.4°C 66% 12.8 mph W20.6 kmh W 39.0 mph62.8 kmh 29.77 in1008.1 mb 0.00 in0.0 mm 0.00 in0.0 mm 0.00 in0.0 mm
12:30 AM 52.7°F11.5°C 41.7°F5.4°C 66% 12.3 mph WNW19.8 kmh WNW 37.9 mph61.0 kmh 29.77 in1008.1 mb 0.00 in0.0 mm 0.00 in0.0 mm 0.00 in0.0 mm
12:45 AM 52.7°F11.5°C 41.7°F5.4°C 66% 10.9 mph WNW17.5 kmh WNW 26.1 mph42.0 kmh 29.77 in1008.1 mb 0.00 in0.0 mm 0.00 in0.0 mm 0.00 in0.0 mm
01:00 AM 52.9°F11.6°C 41.4°F5.2°C 65% 12.6 mph W20.3 kmh W 40.8 mph65.7 kmh 29.77 in1008.1 mb 0.00 in0.0 mm 0.00 in0.0 mm 0.00 in0.0 mm
01:15 AM 52.9°F11.6°C 41.4°F5.2°C 65% 11.7 mph WNW18.8 kmh WNW 30.1 mph48.4 kmh 29.77 in1008.1 mb 0.00 in0.0 mm 0.00 in0.0 mm 0.00 in0.0 mm
01:30 AM 52.9°F11.6°C 41.0°F5.0°C 64% 9.4 mph WNW15.1 kmh WNW 19.3 mph31.1 kmh 29.80 in1009.1 mb 0.00 in0.0 mm 0.00 in0.0 mm 0.00 in0.0 mm
01:45 AM 52.7°F11.5°C 40.5°F4.7°C 63% 12.3 mph WNW19.8 kmh WNW 34.0 mph54.7 kmh 29.80 in1009.1 mb 0.00 in0.0 mm 0.00 in0.0 mm 0.00 in0.0 mm
02:00 AM 52.5°F11.4°C 40.7°F4.8°C 64% 10.5 mph WNW16.9 kmh WNW 26.8 mph43.1 kmh 29.77 in1008.1 mb 0.00 in0.0 mm 0.00 in0.0 mm 0.00 in0.0 mm
02:15 AM 52.5°F11.4°C 40.7°F4.8°C 64% 9.4 mph WNW15.1 kmh WNW 20.8 mph33.5 kmh 29.80 in1009.1 mb 0.00 in0.0 mm 0.00 in0.0 mm 0.00 in0.0 mm
02:30 AM 52.5°F11.4°C 40.7°F4.8°C 64% 9.4 mph W15.1 kmh W 20.4 mph32.8 kmh 29.80 in1009.1 mb 0.00 in0.0 mm 0.00 in0.0 mm 0.00 in0.0 mm
02:45 AM 52.5°F11.4°C 40.7°F4.8°C 64% 9.9 mph WNW15.9 kmh WNW 21.1 mph34.0 kmh 29.80 in1009.1 mb 0.00 in0.0 mm 0.00 in0.0 mm 0.00 in0.0 mm
03:00 AM 52.5°F11.4°C 41.1°F5.1°C 65% 7.0 mph W11.3 kmh W 14.0 mph22.5 kmh 29.83 in1010.2 mb 0.00 in0.0 mm 0.00 in0.0 mm 0.00 in0.0 mm
03:15 AM 52.3°F11.3°C 40.9°F4.9°C 65% 6.2 mph WNW10.0 kmh WNW 21.1 mph34.0 kmh 29.80 in1009.1 mb 0.00 in0.0 mm 0.00 in0.0 mm 0.00 in0.0 mm
03:30 AM 52.5°F11.4°C 40.3°F4.6°C 63% 7.5 mph WNW12.1 kmh WNW 16.1 mph25.9 kmh 29.80 in1009.1 mb 0.00 in0.0 mm 0.00 in0.0 mm 0.00 in0.0 mm
03:45 AM 52.7°F11.5°C 40.5°F4.7°C 63% 7.1 mph WNW11.4 kmh WNW 15.0 mph24.1 kmh 29.77 in1008.1 mb 0.00 in0.0 mm 0.00 in0.0 mm 0.00 in0.0 mm
04:00 AM 52.7°F11.5°C 40.0°F4.4°C 62% 7.8 mph NW12.6 kmh NW 17.2 mph27.7 kmh 29.77 in1008.1 mb 0.00 in0.0 mm 0.00 in0.0 mm 0.00 in0.0 mm
04:15 AM 52.5°F11.4°C 39.9°F4.4°C 62% 7.6 mph NW12.2 kmh NW 17.2 mph27.7 kmh 29.80 in1009.1 mb 0.00 in0.0 mm 0.00 in0.0 mm 0.00 in0.0 mm
04:30 AM 52.7°F11.5°C 40.0°F4.4°C 62% 8.4 mph NW13.5 kmh NW 17.2 mph27.7 kmh 29.80 in1009.1 mb 0.00 in0.0 mm 0.00 in0.0 mm 0.00 in0.0 mm
04:45 AM 52.3°F11.3°C 39.7°F4.3°C 62% 7.3 mph NW11.7 kmh NW 14.0 mph22.5 kmh 29.83 in1010.2 mb 0.00 in0.0 mm 0.00 in0.0 mm 0.00 in0.0 mm
05:00 AM 51.8°F11.0°C 39.2°F4.0°C 62% 4.7 mph NW7.6 kmh NW 12.2 mph19.6 kmh 29.83 in1010.2 mb 0.00 in0.0 mm 0.00 in0.0 mm 0.00 in0.0 mm
05:15 AM 51.3°F10.7°C 37.8°F3.2°C 60% 5.1 mph NNW8.2 kmh NNW 11.8 mph19.0 kmh 29.83 in1010.2 mb 0.00 in0.0 mm 0.00 in0.0 mm 0.00 in0.0 mm
05:30 AM 50.4°F10.2°C 37.4°F3.0°C 61% 0.8 mph NW1.3 kmh NW 4.7 mph7.6 kmh 29.86 in1011.2 mb 0.00 in0.0 mm 0.00 in0.0 mm 0.00 in0.0 mm
05:45 AM 49.5°F9.7°C 36.6°F2.6°C 61% 1.7 mph NW2.7 kmh NW 6.4 mph10.3 kmh 29.86 in1011.2 mb 0.00 in0.0 mm 0.00 in0.0 mm 0.00 in0.0 mm
06:00 AM 49.3°F9.6°C 36.0°F2.2°C 60% 5.3 mph NNW8.5 kmh NNW 12.5 mph20.1 kmh 29.83 in1010.2 mb 0.00 in0.0 mm 0.00 in0.0 mm 0.00 in0.0 mm
06:15 AM 48.9°F9.4°C 35.6°F2.0°C 60% 4.5 mph NW7.2 kmh NW 10.4 mph16.7 kmh 29.86 in1011.2 mb 0.00 in0.0 mm 0.00 in0.0 mm 0.00 in0.0 mm
06:30 AM 48.6°F9.2°C 35.3°F1.8°C 60% 1.6 mph NW2.6 kmh NW 5.7 mph9.2 kmh 29.86 in1011.2 mb 0.00 in0.0 mm 0.00 in0.0 mm 0.00 in0.0 mm
06:45 AM 48.4°F9.1°C 35.1°F1.7°C 60% 1.3 mph NW2.1 kmh NW 7.9 mph12.7 kmh 29.89 in1012.2 mb 0.00 in0.0 mm 0.00 in0.0 mm 0.00 in0.0 mm
07:00 AM 48.4°F9.1°C 35.1°F1.7°C 60% 3.0 mph NW4.8 kmh NW 9.3 mph15.0 kmh 29.92 in1013.2 mb 0.00 in0.0 mm 0.00 in0.0 mm 0.00 in0.0 mm
07:15 AM 48.4°F9.1°C 35.1°F1.7°C 60% 2.8 mph N4.5 kmh N 6.1 mph9.8 kmh 29.92 in1013.2 mb 0.00 in0.0 mm 0.00 in0.0 mm 0.00 in0.0 mm
07:30 AM 48.6°F9.2°C 34.9°F1.6°C 59% 4.7 mph N7.6 kmh N 8.6 mph13.8 kmh 29.89 in1012.2 mb 0.00 in0.0 mm 0.00 in0.0 mm 0.00 in0.0 mm
07:45 AM 48.7°F9.3°C 34.6°F1.4°C 58% 5.7 mph N9.2 kmh N 9.7 mph15.6 kmh 29.89 in1012.2 mb 0.00 in0.0 mm 0.00 in0.0 mm 0.00 in0.0 mm
08:00 AM 49.1°F9.5°C 34.9°F1.6°C 58% 2.6 mph N4.2 kmh N 7.9 mph12.7 kmh 29.92 in1013.2 mb 0.00 in0.0 mm 0.00 in0.0 mm 0.00 in0.0 mm
08:15 AM 49.5°F9.7°C 35.3°F1.8°C 58% 5.3 mph N8.5 kmh N 10.0 mph16.1 kmh 29.95 in1014.2 mb 0.00 in0.0 mm 0.00 in0.0 mm 0.00 in0.0 mm
08:30 AM 50.0°F10.0°C 35.4°F1.9°C 57% 4.0 mph NNW6.4 kmh NNW 9.3 mph15.0 kmh 29.95 in1014.2 mb 0.00 in0.0 mm 0.00 in0.0 mm 0.00 in0.0 mm
08:45 AM 50.5°F10.3°C 35.4°F1.9°C 56% 6.3 mph N10.1 kmh N 11.8 mph19.0 kmh 29.95 in1014.2 mb 0.00 in0.0 mm 0.00 in0.0 mm 0.00 in0.0 mm
09:00 AM 51.1°F10.6°C 35.9°F2.2°C 56% 6.5 mph N10.5 kmh N 12.2 mph19.6 kmh 29.98 in1015.2 mb 0.00 in0.0 mm 0.00 in0.0 mm 0.00 in0.0 mm
09:15 AM 51.8°F11.0°C 36.1°F2.3°C 55% 5.8 mph N9.3 kmh N 10.4 mph16.7 kmh 29.98 in1015.2 mb 0.00 in0.0 mm 0.00 in0.0 mm 0.00 in0.0 mm
09:30 AM 52.3°F11.3°C 36.2°F2.3°C 54% 9.2 mph N14.8 kmh N 14.3 mph23.0 kmh 29.98 in1015.2 mb 0.00 in0.0 mm 0.00 in0.0 mm 0.00 in0.0 mm
09:45 AM 52.7°F11.5°C 35.6°F2.0°C 52% 7.4 mph N11.9 kmh N 13.6 mph21.9 kmh 29.95 in1014.2 mb 0.00 in0.0 mm 0.00 in0.0 mm 0.00 in0.0 mm
10:00 AM 52.9°F11.6°C 35.2°F1.8°C 51% 8.5 mph N13.7 kmh N 16.1 mph25.9 kmh 29.98 in1015.2 mb 0.00 in0.0 mm 0.00 in0.0 mm 0.00 in0.0 mm
10:15 AM 53.1°F11.7°C 34.9°F1.6°C 50% 8.1 mph N13.0 kmh N 16.8 mph27.0 kmh 29.98 in1015.2 mb 0.00 in0.0 mm 0.00 in0.0 mm 0.00 in0.0 mm
10:30 AM 53.4°F11.9°C 34.7°F1.5°C 49% 7.1 mph N11.4 kmh N 14.0 mph22.5 kmh 30.01 in1016.3 mb 0.00 in0.0 mm 0.00 in0.0 mm 0.00 in0.0 mm
10:45 AM 53.8°F12.1°C 34.0°F1.1°C 47% 9.1 mph N14.6 kmh N 15.0 mph24.1 kmh 30.01 in1016.3 mb 0.00 in0.0 mm 0.00 in0.0 mm 0.00 in0.0 mm
11:00 AM 54.3°F12.4°C 34.5°F1.4°C 47% 6.7 mph NNW10.8 kmh NNW 16.1 mph25.9 kmh 30.04 in1017.3 mb 0.00 in0.0 mm 0.00 in0.0 mm 0.00 in0.0 mm
11:15 AM 55.0°F12.8°C 36.2°F2.3°C 49% 4.7 mph NNW7.6 kmh NNW 15.7 mph25.3 kmh 30.04 in1017.3 mb 0.00 in0.0 mm 0.00 in0.0 mm 0.00 in0.0 mm
11:30 AM 55.4°F13.0°C 36.0°F2.2°C 48% 7.1 mph NNW11.4 kmh NNW 14.3 mph23.0 kmh 30.04 in1017.3 mb 0.00 in0.0 mm 0.00 in0.0 mm 0.00 in0.0 mm
11:45 AM 54.7°F12.6°C 34.8°F1.6°C 47% 5.5 mph NW8.9 kmh NW 12.5 mph20.1 kmh 30.04 in1017.3 mb 0.00 in0.0 mm 0.00 in0.0 mm 0.00 in0.0 mm
12:00 PM 54.5°F12.5°C 36.2°F2.3°C 50% 4.2 mph WNW6.8 kmh WNW 14.0 mph22.5 kmh 30.04 in1017.3 mb 0.00 in0.0 mm 0.00 in0.0 mm 0.00 in0.0 mm
12:15 PM 55.0°F12.8°C 36.7°F2.6°C 50% 6.3 mph NW10.1 kmh NW 15.7 mph25.3 kmh 30.04 in1017.3 mb 0.00 in0.0 mm 0.00 in0.0 mm 0.00 in0.0 mm
12:30 PM 55.4°F13.0°C 36.5°F2.5°C 49% 7.7 mph WNW12.4 kmh WNW 19.3 mph31.1 kmh 30.01 in1016.3 mb 0.00 in0.0 mm 0.00 in0.0 mm 0.00 in0.0 mm
12:45 PM 55.6°F13.1°C 36.2°F2.3°C 48% 7.3 mph WNW11.7 kmh WNW 16.1 mph25.9 kmh 30.04 in1017.3 mb 0.00 in0.0 mm 0.00 in0.0 mm 0.00 in0.0 mm
01:00 PM 55.8°F13.2°C 36.4°F2.4°C 48% 6.8 mph WNW10.9 kmh WNW 17.2 mph27.7 kmh 30.01 in1016.3 mb 0.00 in0.0 mm 0.00 in0.0 mm 0.00 in0.0 mm
01:15 PM 55.4°F13.0°C 35.5°F1.9°C 47% 7.9 mph NW12.7 kmh NW 17.5 mph28.2 kmh 30.04 in1017.3 mb 0.00 in0.0 mm 0.00 in0.0 mm 0.00 in0.0 mm
01:30 PM 55.4°F13.0°C 35.5°F1.9°C 47% 7.5 mph WNW12.1 kmh WNW 17.2 mph27.7 kmh 30.04 in1017.3 mb 0.00 in0.0 mm 0.00 in0.0 mm 0.00 in0.0 mm
01:45 PM 55.2°F12.9°C 35.9°F2.2°C 48% 6.4 mph NW10.3 kmh NW 14.0 mph22.5 kmh 30.04 in1017.3 mb 0.00 in0.0 mm 0.00 in0.0 mm 0.00 in0.0 mm
02:00 PM 55.6°F13.1°C 36.7°F2.6°C 49% 7.1 mph WNW11.4 kmh WNW 19.7 mph31.7 kmh 30.04 in1017.3 mb 0.00 in0.0 mm 0.00 in0.0 mm 0.00 in0.0 mm
02:15 PM 55.2°F12.9°C 36.4°F2.4°C 49% 7.7 mph NW12.4 kmh NW 14.3 mph23.0 kmh 30.07 in1018.3 mb 0.00 in0.0 mm 0.00 in0.0 mm 0.00 in0.0 mm
02:30 PM 56.3°F13.5°C 36.8°F2.7°C 48% 7.1 mph NW11.4 kmh NW 17.2 mph27.7 kmh 30.07 in1018.3 mb 0.00 in0.0 mm 0.00 in0.0 mm 0.00 in0.0 mm
02:45 PM 56.3°F13.5°C 37.4°F3.0°C 49% 6.3 mph NW10.1 kmh NW 16.5 mph26.6 kmh 30.07 in1018.3 mb 0.00 in0.0 mm 0.00 in0.0 mm 0.00 in0.0 mm
03:00 PM 55.8°F13.2°C 35.8°F2.1°C 47% 7.8 mph WNW12.6 kmh WNW 16.8 mph27.0 kmh 30.07 in1018.3 mb 0.00 in0.0 mm 0.00 in0.0 mm 0.00 in0.0 mm
03:15 PM 54.3°F12.4°C 34.5°F1.4°C 47% 6.8 mph NW10.9 kmh NW 13.6 mph21.9 kmh 30.07 in1018.3 mb 0.00 in0.0 mm 0.00 in0.0 mm 0.00 in0.0 mm
03:30 PM 54.1°F12.3°C 34.3°F1.3°C 47% 7.4 mph WNW11.9 kmh WNW 27.6 mph44.4 kmh 30.07 in1018.3 mb 0.00 in0.0 mm 0.00 in0.0 mm 0.00 in0.0 mm
03:45 PM 53.8°F12.1°C 34.0°F1.1°C 47% 6.6 mph NW10.6 kmh NW 14.0 mph22.5 kmh 30.09 in1019.0 mb 0.00 in0.0 mm 0.00 in0.0 mm 0.00 in0.0 mm
04:00 PM 53.1°F11.7°C 33.3°F0.7°C 47% 6.3 mph W10.1 kmh W 15.7 mph25.3 kmh 30.09 in1019.0 mb 0.00 in0.0 mm 0.00 in0.0 mm 0.00 in0.0 mm
04:15 PM 52.9°F11.6°C 33.2°F0.7°C 47% 6.8 mph NW10.9 kmh NW 11.8 mph19.0 kmh 30.09 in1019.0 mb 0.00 in0.0 mm 0.00 in0.0 mm 0.00 in0.0 mm
04:30 PM 52.3°F11.3°C 32.2°F0.1°C 46% 6.3 mph NW10.1 kmh NW 12.2 mph19.6 kmh 30.09 in1019.0 mb 0.00 in0.0 mm 0.00 in0.0 mm 0.00 in0.0 mm
04:45 PM 52.0°F11.1°C 32.4°F0.2°C 47% 4.3 mph NW6.9 kmh NW 7.9 mph12.7 kmh 30.09 in1019.0 mb 0.00 in0.0 mm 0.00 in0.0 mm 0.00 in0.0 mm
05:00 PM 51.6°F10.9°C 32.6°F0.3°C 48% 4.4 mph NW7.1 kmh NW 9.3 mph15.0 kmh 30.09 in1019.0 mb 0.00 in0.0 mm 0.00 in0.0 mm 0.00 in0.0 mm
05:15 PM 51.1°F10.6°C 32.6°F0.3°C 49% 3.7 mph NW6.0 kmh NW 7.9 mph12.7 kmh 30.07 in1018.3 mb 0.00 in0.0 mm 0.00 in0.0 mm 0.00 in0.0 mm
05:30 PM 50.2°F10.1°C 32.2°F0.1°C 50% 3.0 mph WNW4.8 kmh WNW 9.3 mph15.0 kmh 30.07 in1018.3 mb 0.00 in0.0 mm 0.00 in0.0 mm 0.00 in0.0 mm
05:45 PM 49.6°F9.8°C 31.7°F-0.2°C 50% 3.6 mph WNW5.8 kmh WNW 9.3 mph15.0 kmh 30.09 in1019.0 mb 0.00 in0.0 mm 0.00 in0.0 mm 0.00 in0.0 mm
06:00 PM 48.7°F9.3°C 31.4°F-0.3°C 51% 3.0 mph W4.8 kmh W 12.2 mph19.6 kmh 30.07 in1018.3 mb 0.00 in0.0 mm 0.00 in0.0 mm 0.00 in0.0 mm
06:15 PM 48.0°F8.9°C 30.7°F-0.7°C 51% 1.4 mph W2.3 kmh W 5.4 mph8.7 kmh 30.09 in1019.0 mb 0.00 in0.0 mm 0.00 in0.0 mm 0.00 in0.0 mm
06:30 PM 47.1°F8.4°C 30.4°F-0.9°C 52% 0.5 mph W0.8 kmh W 6.1 mph9.8 kmh 30.09 in1019.0 mb 0.00 in0.0 mm 0.00 in0.0 mm 0.00 in0.0 mm
06:45 PM 46.4°F8.0°C 30.2°F-1.0°C 53% Calm Calm -- 30.09 in1019.0 mb 0.00 in0.0 mm 0.00 in0.0 mm 0.00 in0.0 mm
07:00 PM 45.9°F7.7°C 30.1°F-1.1°C 54% 0.5 mph W0.8 kmh W 3.6 mph5.8 kmh 30.12 in1020.0 mb 0.00 in0.0 mm 0.00 in0.0 mm 0.00 in0.0 mm
07:15 PM 45.3°F7.4°C 30.1°F-1.1°C 55% 0.8 mph W1.3 kmh W 4.3 mph6.9 kmh 30.12 in1020.0 mb 0.00 in0.0 mm 0.00 in0.0 mm 0.00 in0.0 mm
07:30 PM 45.1°F7.3°C 30.4°F-0.9°C 56% 0.1 mph W0.2 kmh W 3.2 mph5.1 kmh 30.12 in1020.0 mb 0.00 in0.0 mm 0.00 in0.0 mm 0.00 in0.0 mm
07:45 PM 45.1°F7.3°C 30.8°F-0.7°C 57% 2.4 mph W3.9 kmh W 5.7 mph9.2 kmh 30.12 in1020.0 mb 0.00 in0.0 mm 0.00 in0.0 mm 0.00 in0.0 mm
08:00 PM 45.0°F7.2°C 30.6°F-0.8°C 57% 0.2 mph W0.3 kmh W 3.2 mph5.1 kmh 30.12 in1020.0 mb 0.00 in0.0 mm 0.00 in0.0 mm 0.00 in0.0 mm
08:15 PM 44.8°F7.1°C 30.9°F-0.6°C 58% Calm Calm -- 30.12 in1020.0 mb 0.00 in0.0 mm 0.00 in0.0 mm 0.00 in0.0 mm
08:30 PM 44.6°F7.0°C 30.7°F-0.7°C 58% 0.2 mph W0.3 kmh W 2.5 mph4.0 kmh 30.15 in1021.0 mb 0.00 in0.0 mm 0.00 in0.0 mm 0.00 in0.0 mm
08:45 PM 45.1°F7.3°C 31.2°F-0.4°C 58% 5.8 mph NW9.3 kmh NW 15.0 mph24.1 kmh 30.18 in1022.0 mb 0.00 in0.0 mm 0.00 in0.0 mm 0.00 in0.0 mm
09:00 PM 46.2°F7.9°C 31.8°F-0.1°C 57% 10.4 mph N16.7 kmh N 20.4 mph32.8 kmh 30.12 in1020.0 mb 0.00 in0.0 mm 0.00 in0.0 mm 0.00 in0.0 mm
09:15 PM 46.8°F8.2°C 31.9°F-0.1°C 56% 3.3 mph W5.3 kmh W 7.9 mph12.7 kmh 30.15 in1021.0 mb 0.00 in0.0 mm 0.00 in0.0 mm 0.00 in0.0 mm
09:30 PM 45.7°F7.6°C 31.3°F-0.4°C 57% 0.1 mph W0.2 kmh W 3.2 mph5.1 kmh 30.15 in1021.0 mb 0.00 in0.0 mm 0.00 in0.0 mm 0.00 in0.0 mm
09:45 PM 44.6°F7.0°C 30.3°F-0.9°C 57% 0.4 mph WSW0.6 kmh WSW 4.7 mph7.6 kmh 30.15 in1021.0 mb 0.00 in0.0 mm 0.00 in0.0 mm 0.00 in0.0 mm
10:00 PM 44.1°F6.7°C 29.8°F-1.2°C 57% 0.6 mph W1.0 kmh W 4.7 mph7.6 kmh 30.15 in1021.0 mb 0.00 in0.0 mm 0.00 in0.0 mm 0.00 in0.0 mm
10:15 PM 43.7°F6.5°C 29.5°F-1.4°C 57% Calm Calm -- 30.12 in1020.0 mb 0.00 in0.0 mm 0.00 in0.0 mm 0.00 in0.0 mm
10:30 PM 43.2°F6.2°C 29.4°F-1.4°C 58% Calm Calm -- 30.15 in1021.0 mb 0.00 in0.0 mm 0.00 in0.0 mm 0.00 in0.0 mm
10:45 PM 43.2°F6.2°C 29.8°F-1.2°C 59% Calm Calm -- 30.15 in1021.0 mb 0.00 in0.0 mm 0.00 in0.0 mm 0.00 in0.0 mm
11:00 PM 43.0°F6.1°C 30.0°F-1.1°C 60% Calm Calm -- 30.12 in1020.0 mb 0.00 in0.0 mm 0.00 in0.0 mm 0.00 in0.0 mm
11:15 PM 42.4°F5.8°C 29.5°F-1.4°C 60% 0.2 mph E0.3 kmh E 4.3 mph6.9 kmh 30.12 in1020.0 mb 0.00 in0.0 mm 0.00 in0.0 mm 0.00 in0.0 mm
11:30 PM 41.5°F5.3°C 29.1°F-1.6°C 61% Calm Calm -- 30.15 in1021.0 mb 0.00 in0.0 mm 0.00 in0.0 mm 0.00 in0.0 mm
11:45 PM 40.8°F4.9°C 28.8°F-1.8°C 62% Calm Calm -- 30.15 in1021.0 mb 0.00 in0.0 mm 0.00 in0.0 mm 0.00 in0.0 mm